Time;durP1;ratioP1;P1;durP2;ratioP2;P2;SDS_P1;SDS_P2;PMS_P1;PMS_P2;Temp;Humidity;BMP_temperature;BMP_pressure;BME280_temperature;BME280_humidity;BME280_pressure;Samples;Min_cycle;Max_cycle;Signal;HPM_P1;HPM_P2
2023/06/26 00:01:29;;;;;;;1.50;0.70;;;;;;;;;;5107760;27;20027;-61
2023/06/26 00:03:56;;;;;;;4.67;0.77;;;;;;;;;;5108050;28;20038;-61
2023/06/26 00:06:26;;;;;;;0.60;0.50;;;;;;;;;;5092373;28;20426;-60
2023/06/26 00:08:53;;;;;;;1.73;1.00;;;;;;;;;;5092194;28;20533;-61
2023/06/26 00:11:21;;;;;;;0.43;0.40;;;;;;;;;;5092512;28;20391;-62
2023/06/26 00:13:48;;;;;;;0.47;0.30;;;;;;;;;;5099968;28;20034;-62
2023/06/26 00:16:14;;;;;;;2.00;0.70;;;;;;;;;;5107884;28;20092;-61
2023/06/26 00:18:41;;;;;;;0.87;0.60;;;;;;;;;;5107043;28;20039;-61
2023/06/26 00:21:08;;;;;;;0.73;0.30;;;;;;;;;;5107461;28;20073;-61
2023/06/26 00:23:36;;;;;;;0.77;0.57;;;;;;;;;;5106992;28;20024;-62
2023/06/26 00:26:04;;;;;;;0.83;0.60;;;;;;;;;;5092301;28;20028;-62
2023/06/26 00:28:31;;;;;;;0.77;0.43;;;;;;;;;;5096931;28;20023;-62
2023/06/26 00:30:57;;;;;;;2.20;0.70;;;;;;;;;;5091793;28;20032;-61
2023/06/26 00:33:24;;;;;;;0.57;0.40;;;;;;;;;;5093520;28;20551;-61
2023/06/26 00:35:51;;;;;;;0.60;0.40;;;;;;;;;;5111439;28;20028;-61
2023/06/26 00:38:18;;;;;;;1.23;0.70;;;;;;;;;;5107887;28;20054;-60
2023/06/26 00:40:45;;;;;;;0.47;0.40;;;;;;;;;;5111319;28;20630;-61
2023/06/26 00:43:11;;;;;;;2.00;0.60;;;;;;;;;;5108219;28;20106;-62
2023/06/26 00:45:38;;;;;;;2.10;0.80;;;;;;;;;;5091181;28;20552;-61
2023/06/26 00:48:06;;;;;;;0.57;0.43;;;;;;;;;;5093388;28;20021;-61
2023/06/26 00:50:33;;;;;;;0.30;0.27;;;;;;;;;;5096316;28;20103;-60
2023/06/26 00:53:01;;;;;;;0.40;0.30;;;;;;;;;;5096300;28;20020;-61
2023/06/26 00:55:28;;;;;;;1.70;0.63;;;;;;;;;;5096054;28;20028;-62
2023/06/26 00:57:57;;;;;;;1.43;0.63;;;;;;;;;;5096124;28;20034;-62
2023/06/26 01:00:24;;;;;;;2.87;1.00;;;;;;;;;;5078899;28;20028;-62
2023/06/26 01:02:51;;;;;;;0.43;0.30;;;;;;;;;;5108401;28;20016;-62
2023/06/26 01:05:20;;;;;;;4.33;1.13;;;;;;;;;;5101756;28;20036;-61
2023/06/26 01:07:51;;;;;;;0.83;0.43;;;;;;;;;;5091817;28;20028;-62
2023/06/26 01:10:17;;;;;;;0.67;0.40;;;;;;;;;;5093385;28;20030;-61
2023/06/26 01:12:45;;;;;;;0.37;0.27;;;;;;;;;;5095746;28;20036;-61
2023/06/26 01:15:12;;;;;;;0.80;0.43;;;;;;;;;;5102639;28;20366;-60
2023/06/26 01:17:44;;;;;;;2.23;0.97;;;;;;;;;;5116013;28;20027;-60
2023/06/26 01:20:12;;;;;;;6.43;1.13;;;;;;;;;;5115903;28;20046;-61
2023/06/26 01:22:57;;;;;;;1.67;0.80;;;;;;;;;;5112633;28;20114;-60
2023/06/26 01:25:44;;;;;;;2.90;1.00;;;;;;;;;;5074276;28;20024;-61
2023/06/26 01:28:11;;;;;;;5.30;0.53;;;;;;;;;;5090380;28;20082;-61
2023/06/26 01:30:41;;;;;;;0.93;0.73;;;;;;;;;;5102313;28;20062;-60
2023/06/26 01:33:08;;;;;;;1.73;1.00;;;;;;;;;;5112574;28;20019;-60
2023/06/26 01:35:35;;;;;;;1.00;0.60;;;;;;;;;;5115346;28;20028;-60
2023/06/26 01:38:25;;;;;;;0.73;0.60;;;;;;;;;;5115745;28;20416;-60
2023/06/26 01:40:53;;;;;;;0.73;0.60;;;;;;;;;;5115022;28;20054;-62
2023/06/26 01:43:37;;;;;;;1.13;0.80;;;;;;;;;;5114721;28;20032;-60
2023/06/26 01:46:27;;;;;;;1.45;0.85;;;;;;;;;;5091089;28;20034;-60
2023/06/26 01:48:59;;;;;;;1.27;0.80;;;;;;;;;;5052078;28;20059;-60
2023/06/26 01:51:30;;;;;;;1.20;0.70;;;;;;;;;;5089783;28;20027;-60
2023/06/26 01:53:57;;;;;;;1.33;0.93;;;;;;;;;;5090040;28;20074;-61
2023/06/26 01:56:25;;;;;;;1.73;1.07;;;;;;;;;;5095187;28;20021;-60
2023/06/26 01:58:54;;;;;;;1.00;0.90;;;;;;;;;;5094333;28;20036;-60
2023/06/26 02:01:22;;;;;;;10.73;1.10;;;;;;;;;;5095018;28;20035;-61
2023/06/26 02:03:49;;;;;;;1.10;0.80;;;;;;;;;;5094955;28;20467;-61
2023/06/26 02:06:16;;;;;;;1.50;0.90;;;;;;;;;;5093991;28;20043;-61
2023/06/26 02:08:43;;;;;;;1.80;1.33;;;;;;;;;;5089209;28;20089;-62
2023/06/26 02:11:09;;;;;;;3.33;1.70;;;;;;;;;;5090528;28;20036;-62
2023/06/26 02:13:36;;;;;;;3.80;1.90;;;;;;;;;;5090813;28;20039;-62
2023/06/26 02:16:03;;;;;;;5.80;2.13;;;;;;;;;;5106565;28;20112;-62
2023/06/26 02:18:30;;;;;;;1.40;1.00;;;;;;;;;;5114997;28;20024;-62
2023/06/26 02:20:56;;;;;;;2.20;1.47;;;;;;;;;;5114367;28;20493;-62
2023/06/26 02:23:23;;;;;;;3.03;2.10;;;;;;;;;;5097906;28;20099;-61
2023/06/26 02:25:50;;;;;;;6.77;1.83;;;;;;;;;;5102267;28;20497;-60
2023/06/26 02:28:17;;;;;;;5.50;1.83;;;;;;;;;;5100865;28;20502;-63
2023/06/26 02:30:43;;;;;;;4.00;2.00;;;;;;;;;;5100978;28;20091;-61
2023/06/26 02:33:10;;;;;;;1.93;1.23;;;;;;;;;;5109277;28;20028;-61
2023/06/26 02:35:37;;;;;;;2.10;1.13;;;;;;;;;;5108911;28;20028;-60
2023/06/26 02:38:04;;;;;;;4.63;1.50;;;;;;;;;;5108881;28;20051;-61
2023/06/26 02:40:31;;;;;;;1.93;1.30;;;;;;;;;;5095495;28;20028;-61
2023/06/26 02:42:58;;;;;;;2.40;1.47;;;;;;;;;;5105647;28;20027;-61
2023/06/26 02:45:24;;;;;;;1.73;1.17;;;;;;;;;;5113825;28;20028;-60
2023/06/26 02:47:51;;;;;;;2.23;1.50;;;;;;;;;;5107204;28;20031;-60
2023/06/26 02:50:18;;;;;;;5.00;1.43;;;;;;;;;;5113376;28;20028;-61
2023/06/26 02:52:47;;;;;;;2.57;1.80;;;;;;;;;;5107085;28;20099;-61
2023/06/26 02:55:14;;;;;;;1.63;0.90;;;;;;;;;;5108846;28;20435;-61
2023/06/26 02:57:41;;;;;;;2.20;1.50;;;;;;;;;;5107871;28;20051;-61
2023/06/26 03:00:09;;;;;;;3.60;1.40;;;;;;;;;;5104663;28;20097;-61
2023/06/26 03:02:35;;;;;;;1.17;0.97;;;;;;;;;;5102890;28;20115;-60
2023/06/26 03:05:02;;;;;;;2.53;1.20;;;;;;;;;;5094747;28;20089;-61
2023/06/26 03:07:29;;;;;;;1.00;0.80;;;;;;;;;;5072829;28;20395;-61
2023/06/26 03:09:57;;;;;;;2.63;1.50;;;;;;;;;;5082218;28;20020;-61
2023/06/26 03:12:24;;;;;;;2.07;1.63;;;;;;;;;;5094088;28;20483;-62
2023/06/26 03:14:51;;;;;;;1.37;1.00;;;;;;;;;;5109338;28;20063;-61
2023/06/26 03:17:18;;;;;;;6.07;1.40;;;;;;;;;;5099977;28;20032;-63
2023/06/26 03:19:44;;;;;;;1.27;1.00;;;;;;;;;;5093183;28;20058;-61
2023/06/26 03:22:11;;;;;;;1.50;1.23;;;;;;;;;;5105842;28;20028;-61
2023/06/26 03:24:38;;;;;;;2.07;1.57;;;;;;;;;;5109777;28;20022;-60
2023/06/26 03:27:05;;;;;;;2.27;1.27;;;;;;;;;;5113275;28;20062;-61
2023/06/26 03:29:31;;;;;;;1.33;1.00;;;;;;;;;;5105470;28;20435;-61
2023/06/26 03:31:58;;;;;;;4.03;1.50;;;;;;;;;;5098102;28;20077;-60
2023/06/26 03:34:25;;;;;;;3.33;1.87;;;;;;;;;;5113141;28;20355;-61
2023/06/26 03:36:52;;;;;;;1.40;1.20;;;;;;;;;;5110156;28;20027;-60
2023/06/26 03:39:19;;;;;;;2.30;1.43;;;;;;;;;;5094673;28;20498;-62
2023/06/26 03:41:46;;;;;;;1.90;1.53;;;;;;;;;;5100184;28;20023;-61
2023/06/26 03:44:12;;;;;;;3.43;2.30;;;;;;;;;;5106349;28;20394;-61
2023/06/26 03:46:39;;;;;;;6.93;1.10;;;;;;;;;;5083587;28;20023;-61
2023/06/26 03:49:06;;;;;;;1.13;0.83;;;;;;;;;;5073489;28;20024;-61
2023/06/26 03:51:33;;;;;;;1.37;1.10;;;;;;;;;;5092856;28;20035;-61
2023/06/26 03:53:59;;;;;;;5.43;1.63;;;;;;;;;;5092834;28;20032;-61
2023/06/26 03:56:26;;;;;;;1.70;1.27;;;;;;;;;;5092654;28;20020;-61
2023/06/26 03:58:53;;;;;;;1.13;1.00;;;;;;;;;;5089860;28;20141;-61
2023/06/26 04:01:21;;;;;;;1.57;1.07;;;;;;;;;;5087425;28;20166;-61
2023/06/26 04:03:48;;;;;;;1.23;0.93;;;;;;;;;;5087490;28;20023;-60
2023/06/26 04:06:15;;;;;;;0.97;0.87;;;;;;;;;;5087208;28;20035;-60
2023/06/26 04:08:41;;;;;;;1.90;1.17;;;;;;;;;;5089036;28;20035;-60
2023/06/26 04:11:08;;;;;;;1.80;1.17;;;;;;;;;;5092638;28;20127;-60
2023/06/26 04:13:35;;;;;;;1.17;0.97;;;;;;;;;;5098220;28;20019;-60
2023/06/26 04:16:02;;;;;;;1.93;1.40;;;;;;;;;;5112620;28;20080;-61
2023/06/26 04:18:29;;;;;;;1.57;1.27;;;;;;;;;;5097898;28;20035;-60
2023/06/26 04:21:11;;;;;;;2.07;1.47;;;;;;;;;;5090151;28;20433;-62
2023/06/26 04:23:38;;;;;;;1.07;0.97;;;;;;;;;;5070886;28;20059;-61
2023/06/26 04:26:08;;;;;;;2.80;2.00;;;;;;;;;;5094112;28;20089;-60
2023/06/26 04:28:35;;;;;;;1.03;0.93;;;;;;;;;;5104105;28;20093;-61
2023/06/26 04:31:03;;;;;;;1.73;1.43;;;;;;;;;;5075951;28;20028;-60
2023/06/26 04:33:30;;;;;;;2.53;1.53;;;;;;;;;;5092485;28;20058;-61
2023/06/26 04:35:57;;;;;;;3.20;1.93;;;;;;;;;;5106373;28;20040;-60
2023/06/26 04:38:24;;;;;;;2.07;1.53;;;;;;;;;;5112272;28;20027;-60
2023/06/26 04:40:51;;;;;;;1.40;1.07;;;;;;;;;;5112233;28;20031;-60
2023/06/26 04:43:17;;;;;;;1.63;1.30;;;;;;;;;;5109444;28;20374;-61
2023/06/26 04:45:44;;;;;;;2.37;1.73;;;;;;;;;;5105595;28;20061;-60
2023/06/26 04:48:11;;;;;;;2.03;1.50;;;;;;;;;;5096301;28;20379;-60
2023/06/26 04:50:38;;;;;;;1.23;0.83;;;;;;;;;;5087040;28;20483;-60
2023/06/26 04:53:05;;;;;;;1.50;1.30;;;;;;;;;;5088445;28;20352;-60
2023/06/26 04:55:32;;;;;;;2.03;1.33;;;;;;;;;;5093167;28;20567;-60
2023/06/26 04:57:58;;;;;;;1.90;1.50;;;;;;;;;;5092209;28;20024;-60
2023/06/26 05:00:25;;;;;;;1.83;1.37;;;;;;;;;;5092571;28;20085;-59
2023/06/26 05:03:00;;;;;;;2.20;1.60;;;;;;;;;;5092127;28;20035;-60
2023/06/26 05:05:27;;;;;;;;;;;;;;;;;;5090554;28;20112;-61
2023/06/26 05:07:55;;;;;;;2.23;1.60;;;;;;;;;;5085424;28;19912;-60
2023/06/26 05:10:21;;;;;;;1.77;1.30;;;;;;;;;;5086961;28;20024;-61
2023/06/26 05:12:48;;;;;;;4.10;1.33;;;;;;;;;;5089344;28;20016;-60
2023/06/26 05:15:15;;;;;;;2.33;1.60;;;;;;;;;;5107342;28;20050;-59
2023/06/26 05:17:42;;;;;;;2.60;1.70;;;;;;;;;;5111891;28;20055;-60
2023/06/26 05:20:09;;;;;;;5.53;2.27;;;;;;;;;;5111993;28;20118;-60
2023/06/26 05:22:38;;;;;;;3.70;1.73;;;;;;;;;;5112066;28;20062;-59
2023/06/26 05:25:05;;;;;;;4.80;1.80;;;;;;;;;;5099367;28;20024;-59
2023/06/26 05:27:32;;;;;;;3.07;2.03;;;;;;;;;;5112090;28;20012;-60
2023/06/26 05:29:59;;;;;;;3.07;1.77;;;;;;;;;;5093649;28;20032;-59
2023/06/26 05:32:26;;;;;;;3.03;1.93;;;;;;;;;;5079677;28;20743;-59
2023/06/26 05:34:55;;;;;;;1.60;1.20;;;;;;;;;;5104788;28;20529;-59
2023/06/26 05:37:22;;;;;;;2.50;1.53;;;;;;;;;;5095344;28;20635;-58
2023/06/26 05:39:49;;;;;;;2.33;1.73;;;;;;;;;;5094027;28;20021;-58
2023/06/26 05:42:16;;;;;;;4.43;2.73;;;;;;;;;;5097869;28;20020;-59
2023/06/26 05:44:43;;;;;;;1.40;1.17;;;;;;;;;;5114320;28;20024;-58
2023/06/26 05:47:10;;;;;;;2.97;2.03;;;;;;;;;;5097598;28;20056;-58
2023/06/26 05:49:37;;;;;;;2.40;1.60;;;;;;;;;;5093883;28;20082;-58
2023/06/26 05:52:04;;;;;;;2.60;1.60;;;;;;;;;;5089886;28;20425;-58
2023/06/26 05:54:31;;;;;;;2.30;1.67;;;;;;;;;;5091028;28;20032;-58
2023/06/26 05:57:01;;;;;;;4.37;2.13;;;;;;;;;;5108594;28;20038;-58
2023/06/26 05:59:28;;;;;;;2.27;1.70;;;;;;;;;;5094676;28;20036;-59
2023/06/26 06:01:55;;;;;;;2.40;2.00;;;;;;;;;;5095041;28;20112;-60
2023/06/26 06:04:22;;;;;;;2.50;1.90;;;;;;;;;;5094634;28;20020;-60
2023/06/26 06:06:48;;;;;;;19.13;2.53;;;;;;;;;;5094890;28;20069;-60
2023/06/26 06:09:15;;;;;;;2.40;1.93;;;;;;;;;;5094610;28;20111;-59
2023/06/26 06:11:42;;;;;;;2.37;1.83;;;;;;;;;;5094548;28;20436;-59
2023/06/26 06:14:09;;;;;;;3.23;2.33;;;;;;;;;;5090825;28;20174;-60
2023/06/26 06:16:36;;;;;;;2.50;1.93;;;;;;;;;;5107492;28;20492;-59
2023/06/26 06:19:03;;;;;;;5.33;2.83;;;;;;;;;;5109912;28;20386;-59
2023/06/26 06:21:30;;;;;;;32.97;2.47;;;;;;;;;;5109255;28;20518;-60
2023/06/26 06:23:57;;;;;;;2.70;1.90;;;;;;;;;;5114746;28;20027;-59
2023/06/26 06:26:23;;;;;;;3.77;2.50;;;;;;;;;;5098990;27;20028;-59
2023/06/26 06:28:50;;;;;;;2.50;1.97;;;;;;;;;;5115067;28;20024;-60
2023/06/26 06:31:17;;;;;;;2.53;1.80;;;;;;;;;;5098366;28;20024;-59
2023/06/26 06:33:44;;;;;;;3.07;2.27;;;;;;;;;;5095492;28;20103;-60
2023/06/26 06:36:10;;;;;;;6.47;2.47;;;;;;;;;;5108667;28;20501;-59
2023/06/26 06:38:37;;;;;;;6.83;2.90;;;;;;;;;;5109206;28;20478;-60
2023/06/26 06:41:04;;;;;;;4.23;3.10;;;;;;;;;;5100267;28;20097;-60
2023/06/26 06:43:30;;;;;;;4.13;2.87;;;;;;;;;;5099774;28;20032;-59
2023/06/26 06:45:57;;;;;;;5.93;3.20;;;;;;;;;;5104940;28;20394;-60
2023/06/26 06:48:24;;;;;;;3.00;2.50;;;;;;;;;;5113901;27;20030;-59
2023/06/26 06:50:51;;;;;;;7.33;3.60;;;;;;;;;;5085840;28;20016;-59
2023/06/26 06:53:22;;;;;;;9.07;4.23;;;;;;;;;;5073953;28;20052;-59
2023/06/26 06:55:50;;;;;;;9.07;3.10;;;;;;;;;;5086076;28;20038;-59
2023/06/26 06:58:22;;;;;;;4.73;3.13;;;;;;;;;;5106657;28;20040;-60
2023/06/26 07:00:51;;;;;;;8.97;3.23;;;;;;;;;;5107394;28;20046;-59
2023/06/26 07:03:18;;;;;;;4.80;3.50;;;;;;;;;;5108585;28;20096;-59
2023/06/26 07:05:45;;;;;;;2.90;2.27;;;;;;;;;;5108255;28;20020;-60
2023/06/26 07:08:13;;;;;;;2.93;1.97;;;;;;;;;;5112968;28;20452;-59
2023/06/26 07:10:39;;;;;;;2.73;2.30;;;;;;;;;;5113442;28;20031;-59
2023/06/26 07:13:06;;;;;;;7.47;2.97;;;;;;;;;;5099987;28;20073;-59
2023/06/26 07:15:33;;;;;;;4.33;2.63;;;;;;;;;;5099232;28;20076;-59
2023/06/26 07:18:00;;;;;;;4.97;3.53;;;;;;;;;;5113400;28;20022;-60
2023/06/26 07:20:27;;;;;;;19.67;3.40;;;;;;;;;;5100638;28;20558;-59
2023/06/26 07:22:54;;;;;;;6.37;3.77;;;;;;;;;;5088399;28;20548;-61
2023/06/26 07:25:21;;;;;;;2.40;1.80;;;;;;;;;;5071531;28;20043;-59
2023/06/26 07:27:47;;;;;;;5.17;3.27;;;;;;;;;;5100554;28;20031;-60
2023/06/26 07:30:14;;;;;;;3.90;2.70;;;;;;;;;;5111790;28;20106;-59
2023/06/26 07:32:42;;;;;;;4.50;2.37;;;;;;;;;;5113828;28;20023;-59
2023/06/26 07:35:09;;;;;;;3.53;2.90;;;;;;;;;;5106038;28;20501;-60
2023/06/26 07:37:35;;;;;;;8.83;3.93;;;;;;;;;;5093264;28;20032;-59
2023/06/26 07:40:02;;;;;;;6.13;3.10;;;;;;;;;;5093010;28;20074;-59
2023/06/26 07:42:29;;;;;;;3.00;2.10;;;;;;;;;;5089460;28;20028;-59
2023/06/26 07:44:56;;;;;;;3.73;2.93;;;;;;;;;;5087858;28;20028;-60
2023/06/26 07:47:22;;;;;;;4.17;2.67;;;;;;;;;;5087794;28;20027;-61
2023/06/26 07:49:49;;;;;;;3.40;2.63;;;;;;;;;;5091822;28;20116;-60
2023/06/26 07:52:16;;;;;;;3.60;2.70;;;;;;;;;;5083583;28;20028;-60
2023/06/26 07:54:42;;;;;;;2.50;2.00;;;;;;;;;;5092907;28;20024;-60
2023/06/26 07:57:11;;;;;;;3.73;2.77;;;;;;;;;;5092854;28;20020;-60
2023/06/26 07:59:37;;;;;;;4.53;2.97;;;;;;;;;;5092395;28;20046;-59
2023/06/26 08:23:29;;;;;;;3.23;2.50;;;;;;;;;;5097016;28;20094;-59
2023/06/26 08:25:58;;;;;;;4.20;3.47;;;;;;;;;;5106974;28;20032;-59
2023/06/26 08:28:25;;;;;;;4.10;2.73;;;;;;;;;;5087114;28;20055;-59
2023/06/26 08:30:52;;;;;;;6.13;3.40;;;;;;;;;;5090966;28;20075;-60
2023/06/26 08:33:19;;;;;;;7.43;3.23;;;;;;;;;;5087221;28;20081;-59
2023/06/26 08:35:46;;;;;;;2.30;1.77;;;;;;;;;;5105091;28;20016;-60
2023/06/26 08:38:13;;;;;;;2.80;2.03;;;;;;;;;;5093185;28;20024;-60
2023/06/26 08:40:40;;;;;;;3.40;2.43;;;;;;;;;;5091774;28;20043;-59
2023/06/26 08:43:07;;;;;;;3.30;2.70;;;;;;;;;;5092166;28;20032;-60
2023/06/26 08:45:35;;;;;;;7.30;2.67;;;;;;;;;;5092272;28;20030;-59
2023/06/26 08:48:03;;;;;;;5.53;2.83;;;;;;;;;;5108213;28;20024;-59
2023/06/26 08:50:31;;;;;;;4.47;2.70;;;;;;;;;;5105123;28;20039;-60
2023/06/26 08:53:18;;;;;;;3.40;2.47;;;;;;;;;;5107435;28;20339;-59
2023/06/26 08:55:45;;;;;;;4.07;2.87;;;;;;;;;;5106665;28;20140;-60
2023/06/26 08:58:12;;;;;;;4.47;2.57;;;;;;;;;;5108274;28;20390;-59
2023/06/26 09:00:40;;;;;;;2.73;1.70;;;;;;;;;;5111400;28;20567;-60
2023/06/26 09:03:07;;;;;;;2.40;1.70;;;;;;;;;;5096135;28;20020;-59
2023/06/26 09:05:34;;;;;;;7.30;2.43;;;;;;;;;;5095974;28;20034;-59
2023/06/26 09:08:01;;;;;;;8.17;2.47;;;;;;;;;;5095543;28;20470;-59
2023/06/26 09:10:28;;;;;;;7.97;1.73;;;;;;;;;;5098148;28;20047;-59
2023/06/26 09:12:58;;;;;;;3.10;1.37;;;;;;;;;;5109505;28;20024;-59
2023/06/26 09:15:25;;;;;;;1.30;1.03;;;;;;;;;;5104555;28;20055;-59
2023/06/26 09:17:58;;;;;;;8.33;2.33;;;;;;;;;;5109905;28;20035;-59
2023/06/26 09:20:30;;;;;;;3.60;1.47;;;;;;;;;;5093202;28;20040;-60
2023/06/26 09:22:57;;;;;;;9.60;2.67;;;;;;;;;;5115312;28;20030;-59
2023/06/26 09:25:24;;;;;;;3.47;1.50;;;;;;;;;;5115843;28;20030;-59
2023/06/26 09:27:51;;;;;;;4.10;1.57;;;;;;;;;;5115738;28;20371;-59
2023/06/26 09:30:18;;;;;;;3.07;1.17;;;;;;;;;;5100141;28;20034;-59
2023/06/26 09:32:45;;;;;;;2.20;1.40;;;;;;;;;;5094225;28;20052;-59
2023/06/26 09:35:12;;;;;;;3.37;1.17;;;;;;;;;;5090163;28;20032;-59
2023/06/26 09:37:39;;;;;;;3.97;1.27;;;;;;;;;;5090039;28;20046;-60
2023/06/26 09:40:07;;;;;;;5.60;1.17;;;;;;;;;;5103901;28;20063;-59
2023/06/26 09:42:33;;;;;;;4.83;1.33;;;;;;;;;;5111053;28;20107;-59
2023/06/26 09:45:00;;;;;;;1.23;0.97;;;;;;;;;;5115575;28;20016;-59
2023/06/26 09:47:27;;;;;;;11.83;1.37;;;;;;;;;;5115637;28;20028;-59
2023/06/26 09:49:54;;;;;;;3.50;1.27;;;;;;;;;;5103912;28;20024;-59
2023/06/26 09:52:21;;;;;;;1.03;0.83;;;;;;;;;;5095058;28;20119;-59
2023/06/26 09:54:48;;;;;;;0.93;0.70;;;;;;;;;;5093951;28;20020;-59
2023/06/26 09:57:18;;;;;;;1.93;1.00;;;;;;;;;;5089886;28;20479;-59
2023/06/26 09:59:45;;;;;;;1.23;0.97;;;;;;;;;;5099216;28;20530;-60
2023/06/26 10:02:12;;;;;;;25.33;1.73;;;;;;;;;;5071998;28;20024;-59
2023/06/26 10:04:39;;;;;;;4.70;1.40;;;;;;;;;;5089703;28;20486;-59
2023/06/26 10:07:07;;;;;;;2.33;1.33;;;;;;;;;;5095121;28;20036;-60
2023/06/26 10:09:35;;;;;;;3.23;1.43;;;;;;;;;;5101681;28;20080;-60
2023/06/26 10:12:02;;;;;;;4.97;1.90;;;;;;;;;;5113642;28;20062;-60
2023/06/26 10:14:31;;;;;;;3.87;1.83;;;;;;;;;;5104611;28;20375;-60
2023/06/26 10:16:59;;;;;;;19.07;1.90;;;;;;;;;;5094418;28;20022;-59
2023/06/26 10:19:27;;;;;;;6.83;1.97;;;;;;;;;;5095389;28;20035;-59
2023/06/26 10:21:55;;;;;;;8.10;1.60;;;;;;;;;;5091887;28;20419;-59
2023/06/26 10:24:23;;;;;;;1.93;1.10;;;;;;;;;;5088671;28;20039;-59
2023/06/26 10:26:56;;;;;;;15.33;1.67;;;;;;;;;;5106055;28;20042;-59
2023/06/26 10:29:24;;;;;;;6.10;1.87;;;;;;;;;;5108979;28;20030;-59
2023/06/26 10:31:52;;;;;;;2.57;1.23;;;;;;;;;;5094366;28;20069;-60
2023/06/26 10:34:19;;;;;;;4.17;2.03;;;;;;;;;;5094496;28;20040;-59
2023/06/26 10:36:47;;;;;;;9.83;1.93;;;;;;;;;;5106693;28;20023;-59
2023/06/26 10:39:14;;;;;;;5.77;1.93;;;;;;;;;;5081544;28;20084;-59
2023/06/26 10:41:42;;;;;;;2.07;1.53;;;;;;;;;;5108902;28;20028;-59
2023/06/26 10:44:09;;;;;;;5.33;1.60;;;;;;;;;;5109407;28;20015;-59
2023/06/26 10:46:55;;;;;;;8.50;2.23;;;;;;;;;;5108955;28;20091;-59
2023/06/26 10:49:26;;;;;;;2.33;1.40;;;;;;;;;;5104293;28;20111;-59
2023/06/26 10:51:54;;;;;;;6.03;2.20;;;;;;;;;;5094304;28;20149;-59
2023/06/26 10:54:21;;;;;;;7.83;1.87;;;;;;;;;;5096305;28;20040;-60
2023/06/26 10:56:49;;;;;;;26.53;2.53;;;;;;;;;;5114124;28;20028;-59
2023/06/26 10:59:20;;;;;;;4.70;1.87;;;;;;;;;;5110091;27;20032;-59
2023/06/26 11:02:00;;;;;;;3.97;1.23;;;;;;;;;;5092893;28;20613;-60
2023/06/26 11:04:45;;;;;;;10.80;1.77;;;;;;;;;;5088509;28;20425;-59
2023/06/26 11:07:19;;;;;;;3.55;1.75;;;;;;;;;;5088464;28;20482;-59
2023/06/26 11:09:56;;;;;;;4.85;1.25;;;;;;;;;;5095949;28;20084;-59
2023/06/26 11:12:36;;;;;;;18.73;2.33;;;;;;;;;;5097650;28;20016;-59
2023/06/26 11:15:03;;;;;;;7.20;1.77;;;;;;;;;;5094719;28;20030;-59
2023/06/26 11:17:30;;;;;;;5.53;1.43;;;;;;;;;;5110062;28;20541;-59
2023/06/26 11:19:57;;;;;;;3.40;1.80;;;;;;;;;;5104436;28;20028;-60
2023/06/26 11:22:25;;;;;;;15.27;2.20;;;;;;;;;;5092839;28;20031;-59
2023/06/26 11:24:54;;;;;;;9.23;1.90;;;;;;;;;;5090633;28;20050;-59
2023/06/26 11:27:23;;;;;;;1.43;0.93;;;;;;;;;;5088265;28;20035;-59
2023/06/26 11:29:50;;;;;;;10.37;2.00;;;;;;;;;;5095481;28;20023;-59
2023/06/26 11:32:17;;;;;;;5.40;1.67;;;;;;;;;;5108110;28;20039;-59
2023/06/26 11:34:43;;;;;;;3.17;1.63;;;;;;;;;;5110357;28;20051;-58
2023/06/26 11:37:11;;;;;;;14.70;2.30;;;;;;;;;;5113239;28;20035;-59
2023/06/26 11:39:38;;;;;;;3.60;1.50;;;;;;;;;;5107227;28;20038;-59
2023/06/26 11:42:05;;;;;;;1.43;0.93;;;;;;;;;;5093188;28;20558;-59
2023/06/26 11:44:32;;;;;;;3.30;1.53;;;;;;;;;;5093226;28;20089;-59
2023/06/26 11:46:59;;;;;;;5.53;2.03;;;;;;;;;;5090308;28;20024;-59
2023/06/26 11:49:26;;;;;;;13.37;2.10;;;;;;;;;;5091336;28;20119;-59
2023/06/26 11:51:54;;;;;;;2.60;1.37;;;;;;;;;;5107495;28;20023;-59
2023/06/26 11:54:25;;;;;;;2.60;1.50;;;;;;;;;;5105652;28;20032;-59
2023/06/26 11:56:59;;;;;;;2.23;1.40;;;;;;;;;;5097025;28;20063;-59
2023/06/26 11:59:32;;;;;;;4.17;1.27;;;;;;;;;;5096152;28;20359;-59
2023/06/26 12:01:59;;;;;;;1.70;0.90;;;;;;;;;;5112880;28;20374;-58
2023/06/26 12:04:26;;;;;;;5.37;1.90;;;;;;;;;;5112559;28;20028;-59
2023/06/26 12:06:57;;;;;;;5.93;1.63;;;;;;;;;;5112241;28;20028;-59
2023/06/26 12:09:24;;;;;;;8.37;1.47;;;;;;;;;;5107121;28;20032;-59
2023/06/26 12:11:55;;;;;;;20.43;2.10;;;;;;;;;;5101771;28;20138;-59
2023/06/26 12:14:24;;;;;;;2.43;1.20;;;;;;;;;;5107714;28;20016;-58
2023/06/26 12:16:51;;;;;;;5.30;1.47;;;;;;;;;;5093902;28;20434;-59
2023/06/26 12:19:18;;;;;;;4.70;1.70;;;;;;;;;;5093689;28;20032;-59
2023/06/26 12:21:46;;;;;;;1.77;1.20;;;;;;;;;;5099717;28;20031;-59
2023/06/26 12:24:17;;;;;;;4.67;1.60;;;;;;;;;;5092311;28;20106;-58
2023/06/26 12:26:48;;;;;;;9.87;2.07;;;;;;;;;;5092350;28;20034;-59
2023/06/26 12:29:17;;;;;;;28.73;1.93;;;;;;;;;;5093312;28;20020;-59
2023/06/26 12:31:50;;;;;;;4.10;1.40;;;;;;;;;;5101216;28;20047;-59
2023/06/26 12:34:19;;;;;;;6.83;2.40;;;;;;;;;;5106426;28;20527;-59
2023/06/26 12:36:50;;;;;;;3.20;1.93;;;;;;;;;;5089966;28;20131;-59
2023/06/26 12:39:18;;;;;;;4.90;2.00;;;;;;;;;;5086927;28;20525;-59
2023/06/26 12:41:46;;;;;;;3.47;2.10;;;;;;;;;;5092909;28;20031;-59
2023/06/26 12:44:26;;;;;;;3.40;2.00;;;;;;;;;;5092246;28;20027;-59
2023/06/26 12:46:57;;;;;;;5.30;2.07;;;;;;;;;;5092397;28;20028;-59
2023/06/26 12:49:32;;;;;;;5.53;1.77;;;;;;;;;;5092488;28;20028;-59
2023/06/26 12:51:59;;;;;;;;;;;;;;;;;;5105564;28;20115;-59
2023/06/26 12:54:26;;;;;;;3.40;1.63;;;;;;;;;;5108380;28;19908;-59
2023/06/26 12:56:53;;;;;;;3.80;2.00;;;;;;;;;;5106654;28;20022;-59
2023/06/26 12:59:20;;;;;;;3.73;1.87;;;;;;;;;;5106902;28;20039;-59
2023/06/26 13:01:47;;;;;;;13.80;2.13;;;;;;;;;;5095578;28;20525;-59
2023/06/26 13:04:13;;;;;;;4.07;1.97;;;;;;;;;;5089650;28;20032;-59
2023/06/26 13:06:40;;;;;;;2.47;1.50;;;;;;;;;;5092075;28;20028;-59
2023/06/26 13:09:07;;;;;;;3.40;1.30;;;;;;;;;;5092201;28;20531;-59
2023/06/26 13:11:35;;;;;;;11.63;1.87;;;;;;;;;;5100490;28;20055;-59
2023/06/26 13:14:03;;;;;;;8.37;2.47;;;;;;;;;;5102485;28;20020;-59
2023/06/26 13:16:30;;;;;;;1.33;0.97;;;;;;;;;;5099871;28;20039;-59
2023/06/26 13:18:58;;;;;;;3.60;1.70;;;;;;;;;;5106853;28;20040;-59
2023/06/26 13:21:25;;;;;;;5.20;2.00;;;;;;;;;;5098910;28;20850;-59
2023/06/26 13:23:52;;;;;;;11.23;2.07;;;;;;;;;;5086503;28;20032;-59
2023/06/26 13:26:21;;;;;;;2.33;1.50;;;;;;;;;;5100114;28;20019;-59
2023/06/26 13:28:48;;;;;;;5.50;2.17;;;;;;;;;;5111845;28;20481;-59
2023/06/26 13:31:15;;;;;;;2.13;1.27;;;;;;;;;;5105598;28;20039;-60
2023/06/26 13:33:42;;;;;;;8.40;2.27;;;;;;;;;;5091734;28;20024;-59
2023/06/26 13:36:09;;;;;;;6.77;2.13;;;;;;;;;;5091779;28;20028;-59
2023/06/26 13:38:36;;;;;;;4.17;2.07;;;;;;;;;;5088680;28;20108;-59
2023/06/26 13:41:02;;;;;;;2.27;1.47;;;;;;;;;;5089754;28;20030;-59
2023/06/26 13:43:30;;;;;;;5.80;1.77;;;;;;;;;;5106711;28;20024;-60
2023/06/26 13:45:57;;;;;;;2.23;1.33;;;;;;;;;;5108386;28;20028;-59
2023/06/26 13:48:27;;;;;;;5.80;2.63;;;;;;;;;;5112625;28;20027;-61
2023/06/26 13:50:53;;;;;;;5.27;2.30;;;;;;;;;;5112888;28;20032;-59
2023/06/26 13:53:20;;;;;;;1.70;1.23;;;;;;;;;;5095195;28;20028;-59
2023/06/26 13:55:47;;;;;;;3.23;1.57;;;;;;;;;;5095138;28;20051;-60
2023/06/26 13:58:14;;;;;;;8.83;1.57;;;;;;;;;;5095254;28;20024;-59
2023/06/26 14:00:44;;;;;;;6.27;1.00;;;;;;;;;;5092204;28;20042;-60
2023/06/26 14:03:11;;;;;;;4.20;2.20;;;;;;;;;;5092679;28;20024;-60
2023/06/26 14:05:38;;;;;;;3.03;1.27;;;;;;;;;;5089526;28;20557;-60
2023/06/26 14:08:06;;;;;;;1.27;0.97;;;;;;;;;;5089629;28;20047;-60
2023/06/26 14:10:36;;;;;;;2.33;0.83;;;;;;;;;;5091710;28;20038;-60
2023/06/26 14:13:03;;;;;;;1.63;1.03;;;;;;;;;;5103984;28;20035;-60
2023/06/26 14:15:30;;;;;;;2.93;1.47;;;;;;;;;;5104341;28;20384;-60
2023/06/26 14:17:58;;;;;;;1.97;1.10;;;;;;;;;;5105089;28;20015;-60
2023/06/26 14:20:24;;;;;;;4.70;1.77;;;;;;;;;;5114511;28;20043;-61
2023/06/26 14:22:51;;;;;;;2.03;1.57;;;;;;;;;;5110921;28;20099;-61
2023/06/26 14:25:21;;;;;;;1.90;1.23;;;;;;;;;;5094252;28;20020;-61
2023/06/26 14:27:48;;;;;;;2.13;1.63;;;;;;;;;;5099841;28;20032;-61
2023/06/26 14:30:15;;;;;;;3.60;1.33;;;;;;;;;;5092843;28;20360;-61
2023/06/26 14:32:41;;;;;;;3.10;1.63;;;;;;;;;;5110800;28;20023;-61
2023/06/26 14:35:08;;;;;;;0.83;0.60;;;;;;;;;;5114858;28;20022;-61
2023/06/26 14:37:39;;;;;;;1.17;0.63;;;;;;;;;;5098252;28;20062;-60
2023/06/26 14:40:07;;;;;;;5.70;1.43;;;;;;;;;;5094472;28;20039;-61
2023/06/26 14:42:34;;;;;;;2.00;1.23;;;;;;;;;;5094160;28;20103;-60
2023/06/26 14:45:01;;;;;;;1.43;0.83;;;;;;;;;;5092068;28;20028;-61
2023/06/26 14:47:27;;;;;;;3.17;1.40;;;;;;;;;;5087962;28;20024;-61
2023/06/26 14:49:54;;;;;;;4.33;1.53;;;;;;;;;;5088063;28;20024;-61
2023/06/26 14:52:21;;;;;;;3.30;1.40;;;;;;;;;;5086616;28;20786;-61
2023/06/26 14:54:48;;;;;;;1.90;1.07;;;;;;;;;;5097635;28;20107;-61
2023/06/26 14:57:15;;;;;;;3.00;1.40;;;;;;;;;;5102711;28;20028;-61
2023/06/26 14:59:41;;;;;;;1.30;0.80;;;;;;;;;;5093860;28;20067;-61
2023/06/26 15:02:08;;;;;;;1.23;0.70;;;;;;;;;;5093741;28;20043;-61
2023/06/26 15:04:35;;;;;;;5.37;1.30;;;;;;;;;;5093446;28;20032;-61
2023/06/26 15:07:01;;;;;;;1.47;0.97;;;;;;;;;;5098457;28;20023;-60
2023/06/26 15:09:28;;;;;;;4.33;1.13;;;;;;;;;;5108325;28;20028;-61